Terminal Aerodrome Forecast
Issued by NWS Sioux Falls, SD

Home | Current Version | Previous Version | Text Only | Print | Product List | Glossary On
Versions: 1 2 3 4 5 6 7 8 9 10 11 12 13 14 15 16 17 18 19 20 21 22 23 24 25 26 27 28 29 30 31
000
FTUS43 KFSD 210530
TAFSUX
TAF
KSUX 210530Z 2106/2206 31013KT P6SM OVC015
     FM211500 30016G24KT P6SM BKN025
     FM211700 30016G24KT P6SM SCT025
     FM220000 30012KT P6SM FEW200
     FM220200 25006KT P6SM FEW250=

USA.gov is the U.S. government's official web portal to all federal, state and local government web resources and services.